地図

経路データ

SID SEASON NUMBER BASIN SUBBASIN NAME ISO_TIME NATURE LAT LON WMO_WIND WMO_PRES WMO_AGENCY TRACK_TYPE DIST2LAND LANDFALL IFLAG USA_AGENCY USA_ATCF_ID USA_LAT USA_LON USA_RECORD USA_STATUS USA_WIND USA_PRES USA_SSHS USA_R34_NE USA_R34_SE USA_R34_SW USA_R34_NW USA_R50_NE USA_R50_SE USA_R50_SW USA_R50_NW USA_R64_NE USA_R64_SE USA_R64_SW USA_R64_NW USA_POCI USA_ROCI USA_RMW USA_EYE TOKYO_LAT TOKYO_LON TOKYO_GRADE TOKYO_WIND TOKYO_PRES TOKYO_R50_DIR TOKYO_R50_LONG TOKYO_R50_SHORT TOKYO_R30_DIR TOKYO_R30_LONG TOKYO_R30_SHORT TOKYO_LAND CMA_LAT CMA_LON CMA_CAT CMA_WIND CMA_PRES HKO_LAT HKO_LON HKO_CAT HKO_WIND HKO_PRES NEWDELHI_LAT NEWDELHI_LON NEWDELHI_GRADE NEWDELHI_WIND NEWDELHI_PRES NEWDELHI_CI NEWDELHI_DP NEWDELHI_POCI REUNION_LAT REUNION_LON REUNION_TYPE REUNION_WIND REUNION_PRES REUNION_TNUM REUNION_CI REUNION_RMW REUNION_R34_NE REUNION_R34_SE REUNION_R34_SW REUNION_R34_NW REUNION_R50_NE REUNION_R50_SE REUNION_R50_SW REUNION_R50_NW REUNION_R64_NE REUNION_R64_SE REUNION_R64_SW REUNION_R64_NW BOM_LAT BOM_LON BOM_TYPE BOM_WIND BOM_PRES BOM_TNUM BOM_CI BOM_RMW BOM_R34_NE BOM_R34_SE BOM_R34_SW BOM_R34_NW BOM_R50_NE BOM_R50_SE BOM_R50_SW BOM_R50_NW BOM_R64_NE BOM_R64_SE BOM_R64_SW BOM_R64_NW BOM_ROCI BOM_POCI BOM_EYE BOM_POS_METHOD BOM_PRES_METHOD NADI_LAT NADI_LON NADI_CAT NADI_WIND NADI_PRES WELLINGTON_LAT WELLINGTON_LON WELLINGTON_WIND WELLINGTON_PRES DS824_LAT DS824_LON DS824_STAGE DS824_WIND DS824_PRES TD9636_LAT TD9636_LON TD9636_STAGE TD9636_WIND TD9636_PRES TD9635_LAT TD9635_LON TD9635_WIND TD9635_PRES TD9635_ROCI NEUMANN_LAT NEUMANN_LON NEUMANN_CLASS NEUMANN_WIND NEUMANN_PRES MLC_LAT MLC_LON MLC_CLASS MLC_WIND MLC_PRES USA_GUST BOM_GUST BOM_GUST_PER REUNION_GUST REUNION_GUST_PER USA_SEAHGT USA_SEARAD_NE USA_SEARAD_SE USA_SEARAD_SW USA_SEARAD_NW STORM_SPEED STORM_DIR
2022210N28134 2022 40 WP MM SONGDA 2022-07-29 00:00:00 NR 28.0000 133.800 PROVISIONAL 444 350 O_____________ tcvitals WP062022 28.0000 133.800 29 998 -1 1004 100 40 21 302
2022210N28134 2022 40 WP MM SONGDA 2022-07-29 03:00:00 NR 28.5413 132.808 PROVISIONAL 344 251 P_____________ WP062022 28.5413 132.808 29 998 -1 1003 100 40 20 300
2022210N28134 2022 40 WP MM SONGDA 2022-07-29 06:00:00 NR 29.0000 131.800 PROVISIONAL 246 189 O_____________ tcvitals WP062022 29.0000 131.800 29 998 -1 1002 100 40 19 294
2022210N28134 2022 40 WP MM SONGDA 2022-07-29 09:00:00 NR 29.3421 130.783 PROVISIONAL 189 164 P_____________ WP062022 29.3421 130.783 29 997 -1 1002 100 40 19 292
2022210N28134 2022 40 WP MM SONGDA 2022-07-29 12:00:00 NR 29.7000 129.800 PROVISIONAL 168 155 O_____________ tcvitals WP062022 29.7000 129.800 29 997 -1 1003 100 40 19 299
2022210N28134 2022 40 WP MM SONGDA 2022-07-29 15:00:00 NR 30.2567 128.878 PROVISIONAL 159 159 P_____________ WP062022 30.2567 128.878 27 998 -1 1003 100 40 19 305
2022210N28134 2022 40 WP MM SONGDA 2022-07-29 18:00:00 NR 30.8000 128.000 PROVISIONAL 214 214 O_____________ tcvitals WP062022 30.8000 128.000 25 999 -1 1003 100 40 18 300
2022210N28134 2022 40 WP MM SONGDA 2022-07-29 21:00:00 NR 31.1524 127.104 PROVISIONAL 227 200 P_____________ WP062022 31.1524 127.104 27 997 -1 1003 100 40 16 292
2022210N28134 2022 40 WP MM SONGDA 2022-07-30 00:00:00 NR 31.4000 126.300 PROVISIONAL 200 187 O_____________ tcvitals WP062022 31.4000 126.300 29 996 -1 1003 100 40 13 289
2022210N28134 2022 40 WP MM SONGDA 2022-07-30 03:00:00 NR 31.5918 125.646 PROVISIONAL 190 183 P_____________ WP062022 31.5918 125.646 29 996 -1 1003 105 50 11 291
2022210N28134 2022 40 WP MM SONGDA 2022-07-30 06:00:00 NR 31.8000 125.100 PROVISIONAL 192 189 O_____________ tcvitals WP062022 31.8000 125.100 29 997 -1 1003 110 60 11 299
2022210N28134 2022 40 WP MM SONGDA 2022-07-30 09:00:00 NR 32.1050 124.548 PROVISIONAL 207 200 P_____________ WP062022 32.1050 124.548 29 997 -1 1002 97 60 11 310
2022210N28134 2022 40 WP MM SONGDA 2022-07-30 12:00:00 NR 32.5000 124.100 PROVISIONAL 215 210 O_____________ tcvitals WP062022 32.5000 124.100 29 998 -1 1002 85 60 11 327
2022210N28134 2022 40 WP MM SONGDA 2022-07-30 15:00:00 NR 33.0446 123.820 PROVISIONAL 225 223 P_____________ WP062022 33.0446 123.820 29 995 -1 1002 85 50 11 337
2022210N28134 2022 40 WP MM SONGDA 2022-07-30 18:00:00 NR 33.5000 123.600 PROVISIONAL 238 221 O_____________ tcvitals WP062022 33.5000 123.600 29 992 -1 1002 85 40 7 319
2022210N28134 2022 40 WP MM SONGDA 2022-07-30 21:00:00 NR 33.6027 123.247 PROVISIONAL 214 200 P_____________ WP062022 33.6027 123.247 29 991 -1 1002 105 40 5 281
2022210N28134 2022 40 WP MM SONGDA 2022-07-31 00:00:00 NR 33.6000 123.000 PROVISIONAL 200 200 O_____________ tcvitals WP062022 33.6000 123.000 29 991 -1 1002 126 40 2 308
2022210N28134 2022 40 WP MM SONGDA 2022-07-31 03:00:00 NR 33.7275 123.055 PROVISIONAL 214 214 P_____________ WP062022 33.7275 123.055 29 995 -1 1002 126 40 3 29
2022210N28134 2022 40 WP MM SONGDA 2022-07-31 06:00:00 NR 33.9000 123.200 PROVISIONAL 236 236 O_____________ tcvitals WP062022 33.9000 123.200 29 999 -1 1002 126 40 4 23
2022210N28134 2022 40 WP MM SONGDA 2022-07-31 09:00:00 NR 34.0775 123.230 PROVISIONAL 248 248 P_____________ WP062022 34.0775 123.230 27 999 -1 1002 123 40 4 0
2022210N28134 2022 40 WP MM SONGDA 2022-07-31 12:00:00 NR 34.3000 123.200 PROVISIONAL 255 251 O_____________ tcvitals WP062022 34.3000 123.200 25 1000 -1 1002 120 40 5 347
2022210N28134 2022 40 WP MM SONGDA 2022-07-31 15:00:00 NR 34.5925 123.085 PROVISIONAL 255 220 P_____________ WP062022 34.5925 123.085 25 1000 -1 1002 120 40 6 345
2022210N28134 2022 40 WP MM SONGDA 2022-07-31 18:00:00 NR 34.9000 123.000 PROVISIONAL 220 189 O_____________ tcvitals WP062022 34.9000 123.000 25 1000 -1 1002 120 40 6 0
2022210N28134 2022 40 WP MM SONGDA 2022-07-31 21:00:00 NR 35.1650 123.055 PROVISIONAL 192 175 P_____________ WP062022 35.1650 123.055 25 1000 -1 1002 120 40 5 18
2022210N28134 2022 40 WP MM SONGDA 2022-08-01 00:00:00 NR 35.4000 123.200 PROVISIONAL 175 O_____________ tcvitals WP062022 35.4000 123.200 25 1000 -1 1002 120 40 5 26

デジタル台風データ・検索

IBTrACS Databaseについて

本データベースは、米国NOAAが公開する1842年以降の世界の熱帯低気圧のベストトラックデータアーカイブInternational Best Track Archive for Climate Stewardship (IBTrACS)を、ウェブで閲覧しやすい形式に変換したものです。

最終更新日:2022-08-18